sensor_id;sensor_type;location;lat;lon;timestamp;temperature;humidity
16515;DHT22;8370;52.556;7.970;2024-01-15T00:00:38;2.00;99.90
16515;DHT22;8370;52.556;7.970;2024-01-15T00:03:04;2.00;99.90
16515;DHT22;8370;52.556;7.970;2024-01-15T00:05:29;2.00;99.90
16515;DHT22;8370;52.556;7.970;2024-01-15T00:07:55;2.00;99.90
16515;DHT22;8370;52.556;7.970;2024-01-15T00:10:20;2.00;99.90
16515;DHT22;8370;52.556;7.970;2024-01-15T00:12:46;2.00;99.90
16515;DHT22;8370;52.556;7.970;2024-01-15T00:15:12;2.00;99.90
16515;DHT22;8370;52.556;7.970;2024-01-15T00:17:37;2.00;99.90
16515;DHT22;8370;52.556;7.970;2024-01-15T00:20:03;2.00;99.90
16515;DHT22;8370;52.556;7.970;2024-01-15T00:22:29;2.00;99.90
16515;DHT22;8370;52.556;7.970;2024-01-15T00:24:54;2.00;99.90
16515;DHT22;8370;52.556;7.970;2024-01-15T00:27:20;2.00;99.90
16515;DHT22;8370;52.556;7.970;2024-01-15T00:29:45;2.00;99.90
16515;DHT22;8370;52.556;7.970;2024-01-15T00:32:11;2.00;99.90
16515;DHT22;8370;52.556;7.970;2024-01-15T00:34:36;2.00;99.90
16515;DHT22;8370;52.556;7.970;2024-01-15T00:37:02;2.00;99.90
16515;DHT22;8370;52.556;7.970;2024-01-15T00:39:28;2.00;99.90
16515;DHT22;8370;52.556;7.970;2024-01-15T00:41:53;2.00;99.90
16515;DHT22;8370;52.556;7.970;2024-01-15T00:44:19;2.00;99.90
16515;DHT22;8370;52.556;7.970;2024-01-15T00:46:45;2.00;99.90
16515;DHT22;8370;52.556;7.970;2024-01-15T00:49:12;2.00;99.90
16515;DHT22;8370;52.556;7.970;2024-01-15T00:51:38;2.10;99.90
16515;DHT22;8370;52.556;7.970;2024-01-15T00:54:04;2.10;99.90
16515;DHT22;8370;52.556;7.970;2024-01-15T00:56:29;2.10;99.90
16515;DHT22;8370;52.556;7.970;2024-01-15T00:58:55;2.10;99.90
16515;DHT22;8370;52.556;7.970;2024-01-15T01:01:20;2.10;99.90
16515;DHT22;8370;52.556;7.970;2024-01-15T01:03:46;2.10;99.90
16515;DHT22;8370;52.556;7.970;2024-01-15T01:06:11;2.10;99.90
16515;DHT22;8370;52.556;7.970;2024-01-15T01:08:37;2.20;99.90
16515;DHT22;8370;52.556;7.970;2024-01-15T01:11:02;2.20;99.90
16515;DHT22;8370;52.556;7.970;2024-01-15T01:13:28;2.10;99.90
16515;DHT22;8370;52.556;7.970;2024-01-15T01:15:53;2.10;99.90
16515;DHT22;8370;52.556;7.970;2024-01-15T01:18:19;2.10;99.90
16515;DHT22;8370;52.556;7.970;2024-01-15T01:20:44;2.10;99.90
16515;DHT22;8370;52.556;7.970;2024-01-15T01:23:10;2.10;99.90
16515;DHT22;8370;52.556;7.970;2024-01-15T01:25:35;2.00;99.90
16515;DHT22;8370;52.556;7.970;2024-01-15T01:28:01;2.00;99.90
16515;DHT22;8370;52.556;7.970;2024-01-15T01:30:26;2.10;99.90
16515;DHT22;8370;52.556;7.970;2024-01-15T01:32:52;2.00;99.90
16515;DHT22;8370;52.556;7.970;2024-01-15T01:35:17;2.00;99.90
16515;DHT22;8370;52.556;7.970;2024-01-15T01:37:43;2.10;99.90
16515;DHT22;8370;52.556;7.970;2024-01-15T01:40:08;2.10;99.90
16515;DHT22;8370;52.556;7.970;2024-01-15T01:42:34;2.10;99.90
16515;DHT22;8370;52.556;7.970;2024-01-15T01:45:00;2.20;99.90
16515;DHT22;8370;52.556;7.970;2024-01-15T01:47:25;2.20;99.90
16515;DHT22;8370;52.556;7.970;2024-01-15T01:49:52;2.20;99.90
16515;DHT22;8370;52.556;7.970;2024-01-15T01:52:18;2.20;99.90
16515;DHT22;8370;52.556;7.970;2024-01-15T01:54:44;2.20;99.90
16515;DHT22;8370;52.556;7.970;2024-01-15T01:57:10;2.20;99.90
16515;DHT22;8370;52.556;7.970;2024-01-15T01:59:36;2.20;99.90
16515;DHT22;8370;52.556;7.970;2024-01-15T02:02:03;2.20;99.90
16515;DHT22;8370;52.556;7.970;2024-01-15T02:04:29;2.20;99.90
16515;DHT22;8370;52.556;7.970;2024-01-15T02:06:56;2.10;99.90
16515;DHT22;8370;52.556;7.970;2024-01-15T02:09:21;2.10;99.90
16515;DHT22;8370;52.556;7.970;2024-01-15T02:11:47;2.10;99.90
16515;DHT22;8370;52.556;7.970;2024-01-15T02:14:13;2.10;99.90
16515;DHT22;8370;52.556;7.970;2024-01-15T02:16:39;2.00;99.90
16515;DHT22;8370;52.556;7.970;2024-01-15T02:19:04;2.00;99.90
16515;DHT22;8370;52.556;7.970;2024-01-15T02:21:31;1.90;99.90
16515;DHT22;8370;52.556;7.970;2024-01-15T02:23:57;1.90;99.90
16515;DHT22;8370;52.556;7.970;2024-01-15T02:26:23;1.90;99.90
16515;DHT22;8370;52.556;7.970;2024-01-15T02:28:49;1.90;99.90
16515;DHT22;8370;52.556;7.970;2024-01-15T02:31:15;1.90;99.90
16515;DHT22;8370;52.556;7.970;2024-01-15T02:33:42;1.90;99.90
16515;DHT22;8370;52.556;7.970;2024-01-15T02:36:08;1.80;99.90
16515;DHT22;8370;52.556;7.970;2024-01-15T02:38:33;1.90;99.90
16515;DHT22;8370;52.556;7.970;2024-01-15T02:40:59;1.80;99.90
16515;DHT22;8370;52.556;7.970;2024-01-15T02:43:24;1.90;99.90
16515;DHT22;8370;52.556;7.970;2024-01-15T02:45:50;1.80;99.90
16515;DHT22;8370;52.556;7.970;2024-01-15T02:48:15;1.80;99.90
16515;DHT22;8370;52.556;7.970;2024-01-15T02:50:41;1.80;99.90
16515;DHT22;8370;52.556;7.970;2024-01-15T02:53:06;1.80;99.90
16515;DHT22;8370;52.556;7.970;2024-01-15T02:55:32;1.80;99.90
16515;DHT22;8370;52.556;7.970;2024-01-15T02:57:57;1.90;99.90
16515;DHT22;8370;52.556;7.970;2024-01-15T03:00:23;1.90;99.90
16515;DHT22;8370;52.556;7.970;2024-01-15T03:02:50;1.90;99.90
16515;DHT22;8370;52.556;7.970;2024-01-15T03:05:16;2.00;99.90
16515;DHT22;8370;52.556;7.970;2024-01-15T03:07:42;2.00;99.90
16515;DHT22;8370;52.556;7.970;2024-01-15T03:10:08;2.00;99.90
16515;DHT22;8370;52.556;7.970;2024-01-15T03:12:34;2.10;99.90
16515;DHT22;8370;52.556;7.970;2024-01-15T03:14:59;2.10;99.90
16515;DHT22;8370;52.556;7.970;2024-01-15T03:17:25;2.10;99.90
16515;DHT22;8370;52.556;7.970;2024-01-15T03:19:50;2.10;99.90
16515;DHT22;8370;52.556;7.970;2024-01-15T03:22:16;2.10;99.90
16515;DHT22;8370;52.556;7.970;2024-01-15T03:24:42;2.00;99.90
16515;DHT22;8370;52.556;7.970;2024-01-15T03:27:08;2.00;99.90
16515;DHT22;8370;52.556;7.970;2024-01-15T03:29:33;2.00;99.90
16515;DHT22;8370;52.556;7.970;2024-01-15T03:31:59;2.00;99.90
16515;DHT22;8370;52.556;7.970;2024-01-15T03:34:24;2.10;99.90
16515;DHT22;8370;52.556;7.970;2024-01-15T03:36:50;2.10;99.90
16515;DHT22;8370;52.556;7.970;2024-01-15T03:39:15;2.10;99.90
16515;DHT22;8370;52.556;7.970;2024-01-15T03:41:41;2.20;99.90
16515;DHT22;8370;52.556;7.970;2024-01-15T03:44:06;2.10;99.90
16515;DHT22;8370;52.556;7.970;2024-01-15T03:46:32;2.10;99.90
16515;DHT22;8370;52.556;7.970;2024-01-15T03:48:57;2.20;99.90
16515;DHT22;8370;52.556;7.970;2024-01-15T03:51:23;2.10;99.90
16515;DHT22;8370;52.556;7.970;2024-01-15T03:53:48;2.10;99.90
16515;DHT22;8370;52.556;7.970;2024-01-15T03:56:14;2.10;99.90
16515;DHT22;8370;52.556;7.970;2024-01-15T03:58:39;2.10;99.90
16515;DHT22;8370;52.556;7.970;2024-01-15T04:01:11;2.10;99.90
16515;DHT22;8370;52.556;7.970;2024-01-15T04:03:36;2.10;99.90
16515;DHT22;8370;52.556;7.970;2024-01-15T04:06:03;2.10;99.90
16515;DHT22;8370;52.556;7.970;2024-01-15T04:08:28;2.20;99.90
16515;DHT22;8370;52.556;7.970;2024-01-15T04:10:54;2.20;99.90
16515;DHT22;8370;52.556;7.970;2024-01-15T04:13:20;2.10;99.90
16515;DHT22;8370;52.556;7.970;2024-01-15T04:15:45;2.20;99.90
16515;DHT22;8370;52.556;7.970;2024-01-15T04:18:11;2.20;99.90
16515;DHT22;8370;52.556;7.970;2024-01-15T04:20:36;2.10;99.90
16515;DHT22;8370;52.556;7.970;2024-01-15T04:23:02;2.20;99.90
16515;DHT22;8370;52.556;7.970;2024-01-15T04:25:28;2.20;99.90
16515;DHT22;8370;52.556;7.970;2024-01-15T04:27:53;2.20;99.90
16515;DHT22;8370;52.556;7.970;2024-01-15T04:30:19;2.10;99.90
16515;DHT22;8370;52.556;7.970;2024-01-15T04:32:44;2.20;99.90
16515;DHT22;8370;52.556;7.970;2024-01-15T04:35:10;2.10;99.90
16515;DHT22;8370;52.556;7.970;2024-01-15T04:37:35;2.10;99.90
16515;DHT22;8370;52.556;7.970;2024-01-15T04:40:01;2.10;99.90
16515;DHT22;8370;52.556;7.970;2024-01-15T04:42:29;2.00;99.90
16515;DHT22;8370;52.556;7.970;2024-01-15T04:44:54;2.00;99.90
16515;DHT22;8370;52.556;7.970;2024-01-15T04:47:20;2.00;99.90
16515;DHT22;8370;52.556;7.970;2024-01-15T04:49:45;2.00;99.90
16515;DHT22;8370;52.556;7.970;2024-01-15T04:52:11;2.10;99.90
16515;DHT22;8370;52.556;7.970;2024-01-15T04:54:36;2.00;99.90
16515;DHT22;8370;52.556;7.970;2024-01-15T04:57:02;2.10;99.90
16515;DHT22;8370;52.556;7.970;2024-01-15T04:59:28;2.10;99.90
16515;DHT22;8370;52.556;7.970;2024-01-15T05:01:54;2.10;99.90
16515;DHT22;8370;52.556;7.970;2024-01-15T05:04:20;2.10;99.90
16515;DHT22;8370;52.556;7.970;2024-01-15T05:06:45;2.00;99.90
16515;DHT22;8370;52.556;7.970;2024-01-15T05:09:11;2.10;99.90
16515;DHT22;8370;52.556;7.970;2024-01-15T05:11:38;2.00;99.90
16515;DHT22;8370;52.556;7.970;2024-01-15T05:14:04;2.00;99.90
16515;DHT22;8370;52.556;7.970;2024-01-15T05:16:29;2.00;99.90
16515;DHT22;8370;52.556;7.970;2024-01-15T05:18:55;2.10;99.90
16515;DHT22;8370;52.556;7.970;2024-01-15T05:21:21;2.10;99.90
16515;DHT22;8370;52.556;7.970;2024-01-15T05:23:46;2.10;99.90
16515;DHT22;8370;52.556;7.970;2024-01-15T05:26:12;2.10;99.90
16515;DHT22;8370;52.556;7.970;2024-01-15T05:28:37;2.20;99.90
16515;DHT22;8370;52.556;7.970;2024-01-15T05:31:03;2.20;99.90
16515;DHT22;8370;52.556;7.970;2024-01-15T05:33:29;2.10;99.90
16515;DHT22;8370;52.556;7.970;2024-01-15T05:35:55;2.20;99.90
16515;DHT22;8370;52.556;7.970;2024-01-15T05:38:21;2.20;99.90
16515;DHT22;8370;52.556;7.970;2024-01-15T05:40:46;2.20;99.90
16515;DHT22;8370;52.556;7.970;2024-01-15T05:43:11;2.20;99.90
16515;DHT22;8370;52.556;7.970;2024-01-15T05:45:38;2.20;99.90
16515;DHT22;8370;52.556;7.970;2024-01-15T05:48:04;2.20;99.90
16515;DHT22;8370;52.556;7.970;2024-01-15T05:50:29;2.20;99.90
16515;DHT22;8370;52.556;7.970;2024-01-15T05:52:55;2.20;99.90
16515;DHT22;8370;52.556;7.970;2024-01-15T05:55:21;2.20;99.90
16515;DHT22;8370;52.556;7.970;2024-01-15T05:57:46;2.30;99.90
16515;DHT22;8370;52.556;7.970;2024-01-15T06:00:12;2.20;99.90
16515;DHT22;8370;52.556;7.970;2024-01-15T06:02:38;2.20;99.90
16515;DHT22;8370;52.556;7.970;2024-01-15T06:05:04;2.20;99.90
16515;DHT22;8370;52.556;7.970;2024-01-15T06:07:30;2.20;99.90
16515;DHT22;8370;52.556;7.970;2024-01-15T06:09:55;2.20;99.90
16515;DHT22;8370;52.556;7.970;2024-01-15T06:12:22;2.10;99.90
16515;DHT22;8370;52.556;7.970;2024-01-15T06:14:48;2.10;99.90
16515;DHT22;8370;52.556;7.970;2024-01-15T06:17:13;2.00;99.90
16515;DHT22;8370;52.556;7.970;2024-01-15T06:19:39;2.00;99.90
16515;DHT22;8370;52.556;7.970;2024-01-15T06:22:04;2.00;99.90
16515;DHT22;8370;52.556;7.970;2024-01-15T06:24:30;1.90;99.90
16515;DHT22;8370;52.556;7.970;2024-01-15T06:26:55;1.90;99.90
16515;DHT22;8370;52.556;7.970;2024-01-15T06:29:21;2.00;99.90
16515;DHT22;8370;52.556;7.970;2024-01-15T06:31:47;2.10;99.90
16515;DHT22;8370;52.556;7.970;2024-01-15T06:34:12;2.10;99.90
16515;DHT22;8370;52.556;7.970;2024-01-15T06:36:38;2.00;99.90
16515;DHT22;8370;52.556;7.970;2024-01-15T06:39:03;2.10;99.90
16515;DHT22;8370;52.556;7.970;2024-01-15T06:41:29;2.00;99.90
16515;DHT22;8370;52.556;7.970;2024-01-15T06:43:54;2.10;99.90
16515;DHT22;8370;52.556;7.970;2024-01-15T06:46:22;2.10;99.90
16515;DHT22;8370;52.556;7.970;2024-01-15T06:48:47;2.10;99.90
16515;DHT22;8370;52.556;7.970;2024-01-15T06:51:13;2.20;99.90
16515;DHT22;8370;52.556;7.970;2024-01-15T06:53:38;2.20;99.90
16515;DHT22;8370;52.556;7.970;2024-01-15T06:56:04;2.30;99.90
16515;DHT22;8370;52.556;7.970;2024-01-15T06:58:32;2.30;99.90
16515;DHT22;8370;52.556;7.970;2024-01-15T07:00:59;2.20;99.90
16515;DHT22;8370;52.556;7.970;2024-01-15T07:03:24;2.30;99.90
16515;DHT22;8370;52.556;7.970;2024-01-15T07:05:50;2.30;99.90
16515;DHT22;8370;52.556;7.970;2024-01-15T07:08:15;2.30;99.90
16515;DHT22;8370;52.556;7.970;2024-01-15T07:10:41;2.30;99.90
16515;DHT22;8370;52.556;7.970;2024-01-15T07:13:06;2.20;99.90
16515;DHT22;8370;52.556;7.970;2024-01-15T07:15:32;2.20;99.90
16515;DHT22;8370;52.556;7.970;2024-01-15T07:17:57;2.20;99.90
16515;DHT22;8370;52.556;7.970;2024-01-15T07:20:23;2.20;99.90
16515;DHT22;8370;52.556;7.970;2024-01-15T07:22:48;2.20;99.90
16515;DHT22;8370;52.556;7.970;2024-01-15T07:25:15;2.10;99.90
16515;DHT22;8370;52.556;7.970;2024-01-15T07:27:41;2.10;99.90
16515;DHT22;8370;52.556;7.970;2024-01-15T07:30:10;2.10;99.90
16515;DHT22;8370;52.556;7.970;2024-01-15T07:32:36;2.10;99.90
16515;DHT22;8370;52.556;7.970;2024-01-15T07:35:01;2.10;99.90
16515;DHT22;8370;52.556;7.970;2024-01-15T07:37:27;2.00;99.90
16515;DHT22;8370;52.556;7.970;2024-01-15T07:39:55;2.00;99.90
16515;DHT22;8370;52.556;7.970;2024-01-15T07:42:22;2.00;99.90
16515;DHT22;8370;52.556;7.970;2024-01-15T07:44:48;2.10;99.90
16515;DHT22;8370;52.556;7.970;2024-01-15T07:47:13;2.10;99.90
16515;DHT22;8370;52.556;7.970;2024-01-15T07:49:39;2.00;99.90
16515;DHT22;8370;52.556;7.970;2024-01-15T07:52:05;2.00;99.90
16515;DHT22;8370;52.556;7.970;2024-01-15T07:54:31;2.00;99.90
16515;DHT22;8370;52.556;7.970;2024-01-15T07:57:01;1.90;99.90
16515;DHT22;8370;52.556;7.970;2024-01-15T07:59:30;1.90;99.90
16515;DHT22;8370;52.556;7.970;2024-01-15T08:01:56;1.80;99.90
16515;DHT22;8370;52.556;7.970;2024-01-15T08:04:21;1.90;99.90
16515;DHT22;8370;52.556;7.970;2024-01-15T08:06:47;2.00;99.90
16515;DHT22;8370;52.556;7.970;2024-01-15T08:09:13;1.90;99.90
16515;DHT22;8370;52.556;7.970;2024-01-15T08:11:42;1.90;99.90
16515;DHT22;8370;52.556;7.970;2024-01-15T08:14:08;1.90;99.90
16515;DHT22;8370;52.556;7.970;2024-01-15T08:16:35;2.00;99.90
16515;DHT22;8370;52.556;7.970;2024-01-15T08:19:00;1.90;99.90
16515;DHT22;8370;52.556;7.970;2024-01-15T08:21:26;2.00;99.90
16515;DHT22;8370;52.556;7.970;2024-01-15T08:23:58;2.00;99.90
16515;DHT22;8370;52.556;7.970;2024-01-15T08:26:24;2.00;99.90
16515;DHT22;8370;52.556;7.970;2024-01-15T08:28:49;2.00;99.90
16515;DHT22;8370;52.556;7.970;2024-01-15T08:31:15;2.00;99.90
16515;DHT22;8370;52.556;7.970;2024-01-15T08:33:41;2.00;99.90
16515;DHT22;8370;52.556;7.970;2024-01-15T08:36:06;2.00;99.90
16515;DHT22;8370;52.556;7.970;2024-01-15T08:38:32;2.00;99.90
16515;DHT22;8370;52.556;7.970;2024-01-15T08:40:57;2.00;99.90
16515;DHT22;8370;52.556;7.970;2024-01-15T08:43:26;2.00;99.90
16515;DHT22;8370;52.556;7.970;2024-01-15T08:45:52;2.00;99.90
16515;DHT22;8370;52.556;7.970;2024-01-15T08:48:17;2.00;99.90
16515;DHT22;8370;52.556;7.970;2024-01-15T08:50:43;2.00;99.90
16515;DHT22;8370;52.556;7.970;2024-01-15T08:53:11;2.00;99.90
16515;DHT22;8370;52.556;7.970;2024-01-15T08:55:37;1.90;99.90
16515;DHT22;8370;52.556;7.970;2024-01-15T08:58:02;1.90;99.90
16515;DHT22;8370;52.556;7.970;2024-01-15T09:00:28;2.00;99.90
16515;DHT22;8370;52.556;7.970;2024-01-15T09:02:54;2.00;99.90
16515;DHT22;8370;52.556;7.970;2024-01-15T09:05:19;2.00;99.90
16515;DHT22;8370;52.556;7.970;2024-01-15T09:07:45;2.00;99.90
16515;DHT22;8370;52.556;7.970;2024-01-15T09:10:11;2.10;99.90
16515;DHT22;8370;52.556;7.970;2024-01-15T09:12:36;2.10;99.90
16515;DHT22;8370;52.556;7.970;2024-01-15T09:15:02;2.10;99.90
16515;DHT22;8370;52.556;7.970;2024-01-15T09:17:29;2.10;99.90
16515;DHT22;8370;52.556;7.970;2024-01-15T09:19:55;2.20;99.90
16515;DHT22;8370;52.556;7.970;2024-01-15T09:22:20;2.20;99.90
16515;DHT22;8370;52.556;7.970;2024-01-15T09:24:46;2.20;99.90
16515;DHT22;8370;52.556;7.970;2024-01-15T09:27:13;2.10;99.90
16515;DHT22;8370;52.556;7.970;2024-01-15T09:29:38;2.20;99.90
16515;DHT22;8370;52.556;7.970;2024-01-15T09:32:06;2.20;99.90
16515;DHT22;8370;52.556;7.970;2024-01-15T09:34:33;2.20;99.90
16515;DHT22;8370;52.556;7.970;2024-01-15T09:36:58;2.20;99.90
16515;DHT22;8370;52.556;7.970;2024-01-15T09:39:25;2.20;99.90
16515;DHT22;8370;52.556;7.970;2024-01-15T09:41:52;2.20;99.90
16515;DHT22;8370;52.556;7.970;2024-01-15T09:44:19;2.10;99.90
16515;DHT22;8370;52.556;7.970;2024-01-15T09:46:45;2.10;99.90
16515;DHT22;8370;52.556;7.970;2024-01-15T09:49:11;2.10;99.90
16515;DHT22;8370;52.556;7.970;2024-01-15T09:51:38;2.20;99.90
16515;DHT22;8370;52.556;7.970;2024-01-15T09:54:04;2.20;99.90
16515;DHT22;8370;52.556;7.970;2024-01-15T09:56:31;2.30;99.90
16515;DHT22;8370;52.556;7.970;2024-01-15T09:58:57;2.40;99.90
16515;DHT22;8370;52.556;7.970;2024-01-15T10:01:23;2.50;99.90
16515;DHT22;8370;52.556;7.970;2024-01-15T10:03:49;2.50;99.90
16515;DHT22;8370;52.556;7.970;2024-01-15T10:06:16;2.50;99.90
16515;DHT22;8370;52.556;7.970;2024-01-15T10:08:49;2.60;99.90
16515;DHT22;8370;52.556;7.970;2024-01-15T10:11:15;2.60;99.90
16515;DHT22;8370;52.556;7.970;2024-01-15T10:13:43;2.60;99.90
16515;DHT22;8370;52.556;7.970;2024-01-15T10:16:08;2.60;99.90
16515;DHT22;8370;52.556;7.970;2024-01-15T10:18:34;2.60;99.90
16515;DHT22;8370;52.556;7.970;2024-01-15T10:21:02;2.70;99.90
16515;DHT22;8370;52.556;7.970;2024-01-15T10:23:28;2.70;99.90
16515;DHT22;8370;52.556;7.970;2024-01-15T10:25:53;2.70;99.90
16515;DHT22;8370;52.556;7.970;2024-01-15T10:28:21;2.70;99.90
16515;DHT22;8370;52.556;7.970;2024-01-15T10:30:47;2.80;99.90
16515;DHT22;8370;52.556;7.970;2024-01-15T10:33:22;2.80;99.90
16515;DHT22;8370;52.556;7.970;2024-01-15T10:35:51;2.90;99.90
16515;DHT22;8370;52.556;7.970;2024-01-15T10:38:18;3.00;99.90
16515;DHT22;8370;52.556;7.970;2024-01-15T10:40:53;3.10;99.90
16515;DHT22;8370;52.556;7.970;2024-01-15T10:43:19;3.00;99.90
16515;DHT22;8370;52.556;7.970;2024-01-15T10:45:45;3.00;99.90
16515;DHT22;8370;52.556;7.970;2024-01-15T10:48:12;3.20;99.90
16515;DHT22;8370;52.556;7.970;2024-01-15T10:50:37;3.30;99.90
16515;DHT22;8370;52.556;7.970;2024-01-15T10:53:04;3.20;99.90
16515;DHT22;8370;52.556;7.970;2024-01-15T10:55:34;3.20;99.90
16515;DHT22;8370;52.556;7.970;2024-01-15T10:58:00;3.20;99.90
16515;DHT22;8370;52.556;7.970;2024-01-15T11:00:29;3.10;99.90
16515;DHT22;8370;52.556;7.970;2024-01-15T11:02:55;3.10;99.90
16515;DHT22;8370;52.556;7.970;2024-01-15T11:05:21;3.10;99.90
16515;DHT22;8370;52.556;7.970;2024-01-15T11:07:48;3.00;99.90
16515;DHT22;8370;52.556;7.970;2024-01-15T11:10:40;3.10;99.90
16515;DHT22;8370;52.556;7.970;2024-01-15T11:13:15;3.10;99.90
16515;DHT22;8370;52.556;7.970;2024-01-15T11:18:22;3.10;99.90
16515;DHT22;8370;52.556;7.970;2024-01-15T11:26:29;3.00;99.90
16515;DHT22;8370;52.556;7.970;2024-01-15T11:28:55;3.00;99.90
16515;DHT22;8370;52.556;7.970;2024-01-15T11:34:10;3.10;99.90
16515;DHT22;8370;52.556;7.970;2024-01-15T11:41:54;3.20;99.90
16515;DHT22;8370;52.556;7.970;2024-01-15T11:44:21;3.10;99.90
16515;DHT22;8370;52.556;7.970;2024-01-15T11:47:00;3.10;99.90
16515;DHT22;8370;52.556;7.970;2024-01-15T11:52:18;2.90;99.90
16515;DHT22;8370;52.556;7.970;2024-01-15T11:54:51;2.70;99.90
16515;DHT22;8370;52.556;7.970;2024-01-15T11:57:40;2.70;99.90
16515;DHT22;8370;52.556;7.970;2024-01-15T12:00:08;2.70;99.90
16515;DHT22;8370;52.556;7.970;2024-01-15T12:02:34;2.80;99.90
16515;DHT22;8370;52.556;7.970;2024-01-15T12:04:59;2.80;99.90
16515;DHT22;8370;52.556;7.970;2024-01-15T12:07:25;2.80;99.90
16515;DHT22;8370;52.556;7.970;2024-01-15T12:09:50;2.80;99.90
16515;DHT22;8370;52.556;7.970;2024-01-15T12:12:27;2.90;99.90
16515;DHT22;8370;52.556;7.970;2024-01-15T12:14:54;2.80;99.90
16515;DHT22;8370;52.556;7.970;2024-01-15T12:17:20;2.80;99.90
16515;DHT22;8370;52.556;7.970;2024-01-15T12:19:45;2.90;99.90
16515;DHT22;8370;52.556;7.970;2024-01-15T12:22:11;2.90;99.90
16515;DHT22;8370;52.556;7.970;2024-01-15T12:24:36;3.00;99.90
16515;DHT22;8370;52.556;7.970;2024-01-15T12:27:02;3.00;99.90
16515;DHT22;8370;52.556;7.970;2024-01-15T12:29:28;2.90;99.90
16515;DHT22;8370;52.556;7.970;2024-01-15T12:31:53;2.90;99.90
16515;DHT22;8370;52.556;7.970;2024-01-15T12:34:19;2.80;99.90
16515;DHT22;8370;52.556;7.970;2024-01-15T12:36:46;2.80;99.90
16515;DHT22;8370;52.556;7.970;2024-01-15T12:39:12;2.80;99.90
16515;DHT22;8370;52.556;7.970;2024-01-15T12:41:38;2.80;99.90
16515;DHT22;8370;52.556;7.970;2024-01-15T12:44:04;3.00;99.90
16515;DHT22;8370;52.556;7.970;2024-01-15T12:46:30;3.10;99.90
16515;DHT22;8370;52.556;7.970;2024-01-15T12:48:56;3.10;99.90
16515;DHT22;8370;52.556;7.970;2024-01-15T12:51:25;3.10;99.90
16515;DHT22;8370;52.556;7.970;2024-01-15T12:53:51;3.10;99.90
16515;DHT22;8370;52.556;7.970;2024-01-15T12:56:17;3.00;99.90
16515;DHT22;8370;52.556;7.970;2024-01-15T12:58:42;3.00;99.90
16515;DHT22;8370;52.556;7.970;2024-01-15T13:01:08;3.00;99.90
16515;DHT22;8370;52.556;7.970;2024-01-15T13:03:33;2.90;99.90
16515;DHT22;8370;52.556;7.970;2024-01-15T13:05:59;3.00;99.90
16515;DHT22;8370;52.556;7.970;2024-01-15T13:08:24;3.00;99.90
16515;DHT22;8370;52.556;7.970;2024-01-15T13:10:52;3.00;99.90
16515;DHT22;8370;52.556;7.970;2024-01-15T13:13:21;3.00;99.90
16515;DHT22;8370;52.556;7.970;2024-01-15T13:15:47;3.00;99.90
16515;DHT22;8370;52.556;7.970;2024-01-15T13:18:12;3.00;99.90
16515;DHT22;8370;52.556;7.970;2024-01-15T13:20:38;2.90;99.90
16515;DHT22;8370;52.556;7.970;2024-01-15T13:23:03;2.90;99.90
16515;DHT22;8370;52.556;7.970;2024-01-15T13:25:29;2.90;99.90
16515;DHT22;8370;52.556;7.970;2024-01-15T13:27:55;2.80;99.90
16515;DHT22;8370;52.556;7.970;2024-01-15T13:30:20;2.80;99.90
16515;DHT22;8370;52.556;7.970;2024-01-15T13:32:46;2.80;99.90
16515;DHT22;8370;52.556;7.970;2024-01-15T13:35:12;2.80;99.90
16515;DHT22;8370;52.556;7.970;2024-01-15T13:37:38;2.90;99.90
16515;DHT22;8370;52.556;7.970;2024-01-15T13:40:07;2.90;99.90
16515;DHT22;8370;52.556;7.970;2024-01-15T13:42:34;3.00;99.90
16515;DHT22;8370;52.556;7.970;2024-01-15T13:45:00;3.00;99.90
16515;DHT22;8370;52.556;7.970;2024-01-15T13:47:26;3.10;99.90
16515;DHT22;8370;52.556;7.970;2024-01-15T13:49:51;3.00;99.90
16515;DHT22;8370;52.556;7.970;2024-01-15T13:52:16;3.00;99.90
16515;DHT22;8370;52.556;7.970;2024-01-15T13:54:43;3.00;99.90
16515;DHT22;8370;52.556;7.970;2024-01-15T13:57:08;3.00;99.90
16515;DHT22;8370;52.556;7.970;2024-01-15T13:59:34;3.00;99.90
16515;DHT22;8370;52.556;7.970;2024-01-15T14:01:59;2.90;99.90
16515;DHT22;8370;52.556;7.970;2024-01-15T14:04:25;2.90;99.90
16515;DHT22;8370;52.556;7.970;2024-01-15T14:06:50;2.70;99.90
16515;DHT22;8370;52.556;7.970;2024-01-15T14:09:16;2.70;99.90
16515;DHT22;8370;52.556;7.970;2024-01-15T14:11:41;2.70;99.90
16515;DHT22;8370;52.556;7.970;2024-01-15T14:14:07;2.60;99.90
16515;DHT22;8370;52.556;7.970;2024-01-15T14:16:34;2.60;99.90
16515;DHT22;8370;52.556;7.970;2024-01-15T14:19:00;2.60;99.90
16515;DHT22;8370;52.556;7.970;2024-01-15T14:21:27;2.60;99.90
16515;DHT22;8370;52.556;7.970;2024-01-15T14:23:53;2.60;99.90
16515;DHT22;8370;52.556;7.970;2024-01-15T14:26:18;2.60;99.90
16515;DHT22;8370;52.556;7.970;2024-01-15T14:28:44;2.70;99.90
16515;DHT22;8370;52.556;7.970;2024-01-15T14:31:11;2.70;99.90
16515;DHT22;8370;52.556;7.970;2024-01-15T14:33:37;2.80;99.90
16515;DHT22;8370;52.556;7.970;2024-01-15T14:36:02;2.80;99.90
16515;DHT22;8370;52.556;7.970;2024-01-15T14:38:28;2.80;99.90
16515;DHT22;8370;52.556;7.970;2024-01-15T14:40:53;2.90;99.90
16515;DHT22;8370;52.556;7.970;2024-01-15T14:43:19;2.80;99.90
16515;DHT22;8370;52.556;7.970;2024-01-15T14:45:45;2.80;99.90
16515;DHT22;8370;52.556;7.970;2024-01-15T14:48:11;2.70;99.90
16515;DHT22;8370;52.556;7.970;2024-01-15T14:50:39;2.70;99.90
16515;DHT22;8370;52.556;7.970;2024-01-15T14:53:04;2.70;99.90
16515;DHT22;8370;52.556;7.970;2024-01-15T14:55:30;2.60;99.90
16515;DHT22;8370;52.556;7.970;2024-01-15T14:57:55;2.60;99.90
16515;DHT22;8370;52.556;7.970;2024-01-15T15:00:21;2.60;99.90
16515;DHT22;8370;52.556;7.970;2024-01-15T15:02:46;2.50;99.90
16515;DHT22;8370;52.556;7.970;2024-01-15T15:05:13;2.50;99.90
16515;DHT22;8370;52.556;7.970;2024-01-15T15:07:42;2.50;99.90
16515;DHT22;8370;52.556;7.970;2024-01-15T15:10:08;2.40;99.90
16515;DHT22;8370;52.556;7.970;2024-01-15T15:12:34;2.40;99.90
16515;DHT22;8370;52.556;7.970;2024-01-15T15:14:59;2.30;99.90
16515;DHT22;8370;52.556;7.970;2024-01-15T15:17:25;2.40;99.90
16515;DHT22;8370;52.556;7.970;2024-01-15T15:19:51;2.30;99.90
16515;DHT22;8370;52.556;7.970;2024-01-15T15:22:19;2.40;99.90
16515;DHT22;8370;52.556;7.970;2024-01-15T15:24:44;2.40;99.90
16515;DHT22;8370;52.556;7.970;2024-01-15T15:27:10;2.40;99.90
16515;DHT22;8370;52.556;7.970;2024-01-15T15:29:35;2.40;99.90
16515;DHT22;8370;52.556;7.970;2024-01-15T15:32:01;2.40;99.90
16515;DHT22;8370;52.556;7.970;2024-01-15T15:34:27;2.40;99.90
16515;DHT22;8370;52.556;7.970;2024-01-15T15:36:53;2.40;99.90
16515;DHT22;8370;52.556;7.970;2024-01-15T15:39:18;2.40;99.90
16515;DHT22;8370;52.556;7.970;2024-01-15T15:41:44;2.40;99.90
16515;DHT22;8370;52.556;7.970;2024-01-15T15:44:09;2.40;99.90
16515;DHT22;8370;52.556;7.970;2024-01-15T15:46:35;2.40;99.90
16515;DHT22;8370;52.556;7.970;2024-01-15T15:49:01;2.40;99.90
16515;DHT22;8370;52.556;7.970;2024-01-15T15:51:32;2.40;99.90
16515;DHT22;8370;52.556;7.970;2024-01-15T15:53:57;2.40;99.90
16515;DHT22;8370;52.556;7.970;2024-01-15T15:56:23;2.40;99.90
16515;DHT22;8370;52.556;7.970;2024-01-15T15:58:48;2.30;99.90
16515;DHT22;8370;52.556;7.970;2024-01-15T16:01:14;2.20;99.90
16515;DHT22;8370;52.556;7.970;2024-01-15T16:03:39;2.10;99.90
16515;DHT22;8370;52.556;7.970;2024-01-15T16:06:05;2.00;99.90
16515;DHT22;8370;52.556;7.970;2024-01-15T16:08:30;1.90;99.90
16515;DHT22;8370;52.556;7.970;2024-01-15T16:10:55;1.70;99.90
16515;DHT22;8370;52.556;7.970;2024-01-15T16:13:21;1.70;99.90